Tripoli, Libya
Current Conditions -  °F | °C
As of 10:50 AM on Sunday 23 Nov 2014 (Local Time) from HLLM Reporting Station
Scattered Clouds Scattered Clouds  
Wind Chill: 66°   Ceiling: Unl
Heat Index: 66°   Visibility: 5mi
Dew Point: 46°   Wind: 3mph
Humidity: 49%   Direction: 230°SW
Pressure: 30.24"   Gusts: NA
Location:  32.87°N, 13.18°E
Report Text: HLLM 230750Z 23003KT 8000 SCT025 19/08 Q1024
Loading
Personal Weather Stations






























Interactive Weather Map New forecast layout! Learn more

10-Day Weather Forecast

Advertisements
Track Severe Weather on mobile